Terminal Aerodrome Forecast
Issued by NWS Pendleton, OR

Home | Current Version | Previous Version | Text Only | Print | Product List | Glossary On
Versions: 1 2 3 4 5 6 7 8 9 10 11 12 13 14
895
FTUS46 KPDT 071720
TAFPDT
TAF
KPDT 071720Z 0718/0818 14005KT P6SM SCT200
     FM072100 VRB03KT P6SM SCT070 BKN200
     FM080400 11003KT P6SM SCT110 BKN200
      TEMPO 0810/0812 4SM BR
     FM081200 VRB03KT P6SM SCT200
      TEMPO 0812/0814 4SM BR=

USA.gov is the U.S. government's official web portal to all federal, state and local government web resources and services.